Time;durP1;ratioP1;P1;durP2;ratioP2;P2;SDS_P1;SDS_P2;PMS_P1;PMS_P2;Temp;Humidity;BMP_temperature;BMP_pressure;BME280_temperature;BME280_humidity;BME280_pressure;Samples;Min_cycle;Max_cycle;Signal;HPM_P1;HPM_P2
2022/10/13 00:01:06;;;;;;;24.77;11.43;;;;;;;11.40;91.77;101985.56;5089671;28;20034;-70
2022/10/13 00:03:32;;;;;;;26.10;11.45;;;;;;;11.29;92.52;101994.16;5086895;28;20036;-71
2022/10/13 00:05:57;;;;;;;20.23;10.77;;;;;;;11.38;92.22;101990.41;5090548;28;20026;-71
2022/10/13 00:08:25;;;;;;;17.33;10.67;;;;;;;11.29;92.51;101996.91;5085536;28;20028;-71
2022/10/13 00:10:50;;;;;;;19.38;10.45;;;;;;;11.29;92.76;101988.69;5083767;28;20110;-71
2022/10/13 00:13:16;;;;;;;29.53;10.10;;;;;;;11.31;92.70;101984.75;5086634;28;20436;-70
2022/10/13 00:15:44;;;;;;;22.38;10.05;;;;;;;11.31;93.16;101983.91;5089643;28;20024;-70
2022/10/13 00:18:09;;;;;;;24.05;11.55;;;;;;;11.32;93.16;101988.34;5087852;28;20025;-71
2022/10/13 00:20:35;;;;;;;22.63;10.07;;;;;;;11.37;92.77;101980.47;5087724;28;20349;-70
2022/10/13 00:23:00;;;;;;;19.73;10.30;;;;;;;11.39;92.74;101983.88;5089260;28;20039;-70
2022/10/13 00:25:25;;;;;;;28.80;10.37;;;;;;;11.52;92.24;101985.03;5072174;28;20032;-71
2022/10/13 00:27:51;;;;;;;24.63;10.07;;;;;;;11.44;92.86;101981.47;5088839;28;20198;-71
2022/10/13 00:30:16;;;;;;;23.52;10.85;;;;;;;11.46;92.81;101984.88;5089962;28;20035;-71
2022/10/13 00:32:42;;;;;;;20.83;10.80;;;;;;;11.42;93.11;101984.38;5084878;28;20024;-71
2022/10/13 00:35:08;;;;;;;24.60;10.30;;;;;;;11.48;92.86;101982.81;5088704;28;20028;-70
2022/10/13 00:37:33;;;;;;;23.40;10.63;;;;;;;11.59;92.11;101977.84;5091120;28;20031;-71
2022/10/13 00:39:58;;;;;;;21.70;10.17;;;;;;;11.68;91.87;101984.19;5086377;28;20032;-71
2022/10/13 00:42:25;;;;;;;17.67;10.60;;;;;;;11.68;91.67;101984.19;5068857;28;20395;-71
2022/10/13 00:45:25;;;;;;;27.35;11.10;;;;;;;11.69;91.72;101980.41;5089509;28;20028;-71
2022/10/13 00:47:55;;;;;;;19.98;9.80;;;;;;;11.69;92.12;101978.50;5088921;28;20115;-70
2022/10/13 00:50:25;;;;;;;24.00;10.52;;;;;;;11.62;92.08;101980.25;5088469;28;20059;-71
2022/10/13 00:52:53;;;;;;;21.30;10.63;;;;;;;11.71;92.03;101984.69;5088606;28;20125;-70
2022/10/13 00:55:23;;;;;;;23.42;11.85;;;;;;;11.73;92.53;101984.47;5089771;28;20026;-71
2022/10/13 00:57:54;;;;;;;21.50;10.93;;;;;;;11.79;92.11;101981.06;5069760;28;20031;-70
2022/10/13 01:00:23;;;;;;;22.95;10.85;;;;;;;11.89;91.85;101978.94;5086105;28;20059;-70
2022/10/13 01:02:49;;;;;;;22.42;9.70;;;;;;;11.88;91.14;101975.34;5082083;28;20120;-71
2022/10/13 01:05:17;;;;;;;21.92;10.25;;;;;;;11.89;91.11;101984.41;5087395;28;20103;-71
2022/10/13 01:07:47;;;;;;;23.15;10.57;;;;;;;11.84;91.59;101984.13;5089429;28;20078;-71
2022/10/13 01:10:12;;;;;;;16.67;10.00;;;;;;;11.79;91.57;101986.53;5088913;28;20030;-71
2022/10/13 01:12:49;;;;;;;18.37;9.30;;;;;;;11.87;91.64;101981.00;5087016;28;20466;-71
2022/10/13 01:15:23;;;;;;;19.60;9.95;;;;;;;11.89;91.90;101976.19;5084362;28;20029;-71
2022/10/13 01:18:15;;;;;;;16.75;9.70;;;;;;;11.81;92.14;101978.97;5080716;28;20675;-71
2022/10/13 01:21:14;;;;;;;19.08;9.60;;;;;;;11.90;92.26;101975.16;5090046;28;20036;-71
2022/10/13 01:23:54;;;;;;;24.17;10.40;;;;;;;11.86;91.94;101954.59;5087975;28;20035;-71
2022/10/13 01:26:51;;;;;;;21.50;9.98;;;;;;;11.91;92.38;101974.13;5089767;28;20032;-71
2022/10/13 01:29:53;;;;;;;21.25;10.55;;;;;;;11.94;92.31;101973.75;5083764;28;20069;-70
2022/10/13 01:32:31;;;;;;;23.50;9.48;;;;;;;11.99;91.37;101971.34;5083726;28;20028;-70
2022/10/13 01:35:10;;;;;;;21.38;10.18;;;;;;;12.00;91.59;101973.06;5089313;28;20024;-70
2022/10/13 01:37:42;;;;;;;19.27;9.43;;;;;;;11.98;91.52;101969.63;5088150;28;20036;-70
2022/10/13 01:40:12;;;;;;;16.95;9.65;;;;;;;11.94;92.02;101968.25;5070612;28;20080;-70
2022/10/13 01:42:50;;;;;;;17.35;9.65;;;;;;;11.96;92.41;101971.72;5074066;28;20107;-71
2022/10/13 01:45:20;;;;;;;26.75;10.00;;;;;;;11.91;92.66;101961.25;5084247;28;20028;-70
2022/10/13 01:47:48;;;;;;;16.33;9.88;;;;;;;11.91;92.74;101963.16;5085589;28;20027;-71
2022/10/13 01:50:17;;;;;;;23.38;9.52;;;;;;;12.04;92.12;101957.91;5070096;28;20440;-70
2022/10/13 01:52:43;;;;;;;20.15;9.15;;;;;;;12.10;92.23;101958.06;5086830;28;20055;-70
2022/10/13 01:55:11;;;;;;;20.35;10.23;;;;;;;12.06;92.51;101951.22;5089799;28;20490;-70
2022/10/13 01:57:42;;;;;;;22.73;8.63;;;;;;;12.06;92.33;101945.72;5088365;28;20100;-71
2022/10/13 02:00:15;;;;;;;20.90;8.05;;;;;;;12.16;92.23;101937.28;5085232;28;20051;-70
2022/10/13 02:03:04;;;;;;;16.67;8.60;;;;;;;12.28;91.55;101941.31;5076847;28;20043;-70
2022/10/13 02:05:32;;;;;;;16.95;8.73;;;;;;;12.28;91.69;101938.56;5088565;28;20036;-70
2022/10/13 02:08:03;;;;;;;16.08;8.27;;;;;;;12.28;92.00;101925.66;5086896;28;20059;-71
2022/10/13 02:10:51;;;;;;;18.30;9.30;;;;;;;12.23;91.98;101921.78;5089791;28;20078;-70
2022/10/13 02:13:21;;;;;;;22.63;9.93;;;;;;;12.22;92.41;101920.06;5083747;28;20050;-70
2022/10/13 02:15:50;;;;;;;18.63;8.85;;;;;;;12.15;93.30;101910.81;5088447;28;20044;-70
2022/10/13 02:18:21;;;;;;;21.65;8.32;;;;;;;12.13;92.77;101915.66;5086367;28;20060;-71
2022/10/13 02:20:46;;;;;;;19.63;8.90;;;;;;;12.23;93.13;101902.53;5071142;28;20028;-71
2022/10/13 02:23:14;;;;;;;20.97;8.70;;;;;;;12.25;92.89;101914.19;5086064;28;20035;-71
2022/10/13 02:25:41;;;;;;;17.55;9.80;;;;;;;12.13;93.25;101916.53;5089349;28;20115;-71
2022/10/13 02:28:07;;;;;;;;;;;;;;;12.22;93.23;101917.31;5087525;28;20082;-70
2022/10/13 02:30:32;;;;;;;21.95;9.07;;;;;;;12.27;93.23;101904.72;5086775;28;20291;-70
2022/10/13 02:33:01;;;;;;;20.57;9.00;;;;;;;12.22;93.43;101915.41;5080312;28;20031;-70
2022/10/13 02:35:28;;;;;;;19.23;9.65;;;;;;;12.19;93.69;101917.66;5088433;28;20026;-70
2022/10/13 02:37:54;;;;;;;23.35;9.45;;;;;;;12.20;94.43;101920.25;5087098;28;20709;-71
2022/10/13 02:40:19;;;;;;;23.03;9.23;;;;;;;12.25;94.32;101919.69;5088279;28;20410;-70
2022/10/13 02:42:44;;;;;;;23.40;10.50;;;;;;;12.29;94.81;101910.91;5083595;28;20034;-71
2022/10/13 02:45:10;;;;;;;18.30;10.17;;;;;;;12.26;95.01;101925.00;5067162;28;20131;-70
2022/10/13 02:47:35;;;;;;;26.50;10.33;;;;;;;12.29;95.33;101913.66;5084657;28;20523;-71
2022/10/13 02:50:01;;;;;;;20.90;9.23;;;;;;;12.37;95.13;101907.22;5089054;28;20168;-71
2022/10/13 02:52:26;;;;;;;21.92;10.02;;;;;;;12.41;95.00;101905.84;5070419;28;20035;-71
2022/10/13 02:54:52;;;;;;;21.80;9.17;;;;;;;12.43;95.29;101912.84;5086445;28;20417;-70
2022/10/13 02:57:17;;;;;;;20.10;10.07;;;;;;;12.36;94.58;101900.91;5089483;28;20039;-70
2022/10/13 02:59:42;;;;;;;24.27;8.93;;;;;;;12.43;94.99;101892.78;5086414;28;20029;-70
2022/10/13 03:02:08;;;;;;;24.53;10.67;;;;;;;12.40;94.78;101887.66;5085057;28;20028;-71
2022/10/13 03:04:33;;;;;;;20.00;9.00;;;;;;;12.52;94.83;101888.91;5083921;28;20032;-71
2022/10/13 03:06:58;;;;;;;19.03;9.17;;;;;;;12.53;94.43;101893.34;5088679;28;20082;-71
2022/10/13 03:09:24;;;;;;;24.97;10.23;;;;;;;12.57;94.76;101891.97;5085664;28;20028;-71
2022/10/13 03:11:49;;;;;;;23.13;9.53;;;;;;;12.58;94.17;101886.28;5088712;28;20043;-71
2022/10/13 03:14:14;;;;;;;18.63;9.37;;;;;;;12.53;95.22;101888.72;5068085;28;20177;-71
2022/10/13 03:16:40;;;;;;;28.73;9.90;;;;;;;12.54;94.87;101884.94;5088055;28;20028;-71
2022/10/13 03:19:05;;;;;;;20.20;9.73;;;;;;;12.55;95.29;101877.56;5085942;28;20542;-72
2022/10/13 03:21:30;;;;;;;25.65;9.80;;;;;;;12.50;94.56;101874.50;5086719;28;20115;-71
2022/10/13 03:23:56;;;;;;;23.87;10.07;;;;;;;12.61;94.29;101871.31;5087439;28;20038;-71
2022/10/13 03:26:21;;;;;;;21.13;9.50;;;;;;;12.48;94.83;101860.13;5087242;28;20028;-71
2022/10/13 03:28:49;;;;;;;15.57;9.30;;;;;;;12.50;95.19;101866.25;5088404;28;20032;-71
2022/10/13 03:31:15;;;;;;;18.92;9.63;;;;;;;12.48;94.88;101858.19;5090755;28;20113;-71
2022/10/13 03:33:40;;;;;;;20.17;9.73;;;;;;;12.45;94.87;101868.72;5083593;28;20032;-71
2022/10/13 03:36:06;;;;;;;26.90;9.40;;;;;;;12.34;95.56;101845.25;5089115;28;20024;-71
2022/10/13 03:38:33;;;;;;;25.53;10.40;;;;;;;12.28;96.08;101856.16;5089572;28;20032;-71
2022/10/13 03:41:11;;;;;;;26.58;9.90;;;;;;;12.27;96.18;101860.78;5087930;28;20380;-71
2022/10/13 03:43:37;;;;;;;25.30;9.38;;;;;;;12.20;96.10;101853.44;5083304;28;20450;-71
2022/10/13 03:46:04;;;;;;;24.20;9.30;;;;;;;12.18;96.02;101858.28;5088415;28;20039;-71
2022/10/13 03:48:30;;;;;;;28.45;10.25;;;;;;;12.15;96.48;101875.97;5088250;28;20024;-71
2022/10/13 03:50:55;;;;;;;24.27;10.53;;;;;;;12.22;95.88;101870.63;5090970;28;20028;-70
2022/10/13 03:53:21;;;;;;;23.07;9.50;;;;;;;12.25;96.20;101862.00;5088209;28;20031;-71
2022/10/13 03:55:53;;;;;;;23.50;9.47;;;;;;;12.20;96.16;101857.06;5092330;28;20028;-71
2022/10/13 03:58:20;;;;;;;23.60;9.00;;;;;;;12.20;96.60;101858.94;5090895;28;20487;-70
2022/10/13 04:00:45;;;;;;;23.55;9.85;;;;;;;12.22;96.59;101859.63;5092051;28;20070;-70
2022/10/13 04:03:11;;;;;;;24.67;10.47;;;;;;;12.20;96.72;101853.44;5087481;28;20079;-70
2022/10/13 04:05:36;;;;;;;22.27;9.80;;;;;;;12.26;96.11;101852.72;5073737;28;20036;-71
2022/10/13 04:08:02;;;;;;;22.40;10.10;;;;;;;12.21;96.13;101844.16;5072453;28;20157;-70
2022/10/13 04:10:27;;;;;;;26.60;10.00;;;;;;;12.27;96.12;101854.44;5092605;28;20056;-70
2022/10/13 04:12:53;;;;;;;28.30;9.00;;;;;;;12.34;96.00;101861.75;5088217;28;20531;-70
2022/10/13 04:15:18;;;;;;;23.83;10.07;;;;;;;12.39;96.27;101863.97;5088299;28;20028;-70
2022/10/13 04:17:43;;;;;;;21.57;10.43;;;;;;;12.38;95.96;101856.75;5087141;28;20434;-71
2022/10/13 04:20:09;;;;;;;20.33;9.73;;;;;;;12.45;95.80;101857.72;5090889;28;20029;-72
2022/10/13 04:22:34;;;;;;;28.13;9.53;;;;;;;12.44;96.10;101856.84;5090460;28;20024;-71
2022/10/13 04:25:00;;;;;;;21.80;9.20;;;;;;;12.40;96.63;101854.66;5088395;28;20368;-71
2022/10/13 04:27:25;;;;;;;22.67;9.90;;;;;;;12.45;96.49;101858.59;5090112;28;20136;-72
2022/10/13 04:29:52;;;;;;;21.57;9.20;;;;;;;12.53;96.05;101864.00;5088349;28;20094;-71
2022/10/13 04:32:17;;;;;;;19.33;9.18;;;;;;;12.58;96.09;101839.56;5088148;28;20063;-71
2022/10/13 04:34:43;;;;;;;20.83;8.83;;;;;;;12.50;96.63;101853.34;5087320;28;20105;-72
2022/10/13 04:37:08;;;;;;;17.50;8.13;;;;;;;12.49;96.65;101861.81;5089537;28;20373;-71
2022/10/13 04:39:33;;;;;;;21.57;9.03;;;;;;;12.60;96.15;101864.13;5087869;28;20032;-72
2022/10/13 04:41:59;;;;;;;23.70;8.73;;;;;;;12.54;96.36;101857.47;5089698;28;20036;-71
2022/10/13 04:44:24;;;;;;;29.60;8.87;;;;;;;12.57;96.11;101856.22;5084640;28;20645;-72
2022/10/13 04:46:49;;;;;;;24.47;8.17;;;;;;;12.51;96.32;101854.22;5085019;28;20032;-71
2022/10/13 04:49:15;;;;;;;20.13;8.10;;;;;;;12.65;96.35;101847.94;5089379;28;20032;-71
2022/10/13 04:51:41;;;;;;;24.93;9.13;;;;;;;12.72;95.90;101848.88;5089263;28;20167;-71
2022/10/13 04:54:06;;;;;;;28.07;8.63;;;;;;;12.78;96.67;101857.25;5088841;28;20036;-71
2022/10/13 04:56:32;;;;;;;23.00;8.00;;;;;;;12.76;96.59;101855.72;5089052;28;20024;-71
2022/10/13 04:58:58;;;;;;;23.83;8.73;;;;;;;12.80;96.24;101852.41;5089334;28;20032;-71
2022/10/13 05:01:24;;;;;;;25.50;9.27;;;;;;;12.82;96.35;101854.97;5088156;28;20024;-71
2022/10/13 05:03:54;;;;;;;29.77;9.13;;;;;;;12.82;97.00;101850.31;5086755;28;20118;-71
2022/10/13 05:06:22;;;;;;;17.58;8.65;;;;;;;12.87;96.27;101850.59;5090087;28;20138;-71
2022/10/13 05:08:48;;;;;;;21.30;8.43;;;;;;;12.87;96.71;101849.75;5086452;28;20475;-70
2022/10/13 05:11:14;;;;;;;23.57;10.47;;;;;;;12.84;96.95;101842.75;5078665;28;20086;-71
2022/10/13 05:13:39;;;;;;;23.83;9.60;;;;;;;12.80;97.33;101844.16;5064111;28;20312;-70
2022/10/13 05:16:09;;;;;;;25.37;10.20;;;;;;;12.75;97.79;101848.50;5083028;28;20193;-70
2022/10/13 05:18:36;;;;;;;22.83;10.05;;;;;;;12.68;98.34;101842.91;5073368;28;20198;-70
2022/10/13 05:21:12;;;;;;;27.52;9.70;;;;;;;12.79;98.35;101844.31;5056854;28;20616;-71
2022/10/13 05:23:38;;;;;;;23.67;9.35;;;;;;;12.85;98.16;101852.69;5054640;28;20028;-70
2022/10/13 05:26:08;;;;;;;23.02;10.07;;;;;;;12.76;98.68;101852.97;5056906;28;20051;-70
2022/10/13 05:28:34;;;;;;;23.45;10.18;;;;;;;12.75;99.60;101852.09;5085253;28;20047;-71
2022/10/13 05:31:20;;;;;;;25.17;10.10;;;;;;;12.75;99.25;101851.25;5083394;28;20032;-70
2022/10/13 05:33:46;;;;;;;22.88;9.95;;;;;;;12.77;99.96;101840.94;5090682;28;20023;-70
2022/10/13 05:36:17;;;;;;;26.55;10.68;;;;;;;12.67;100.00;101834.84;5083151;28;20096;-70
2022/10/13 05:38:43;;;;;;;23.40;10.27;;;;;;;12.62;100.00;101818.03;5085486;28;20364;-70
2022/10/13 05:41:11;;;;;;;20.50;11.27;;;;;;;12.74;99.96;101808.28;5079638;28;20034;-70
2022/10/13 05:43:38;;;;;;;30.05;11.85;;;;;;;12.62;100.00;101809.81;5060919;28;20016;-70
2022/10/13 05:46:04;;;;;;;28.58;10.60;;;;;;;12.56;100.00;101805.91;5089691;28;20032;-70
2022/10/13 05:48:30;;;;;;;30.90;11.27;;;;;;;12.60;100.00;101811.91;5085106;28;20758;-70
2022/10/13 05:50:58;;;;;;;27.07;11.37;;;;;;;12.65;100.00;101809.44;5090479;28;20024;-70
2022/10/13 05:53:26;;;;;;;19.45;10.45;;;;;;;12.63;100.00;101819.75;5088979;28;20498;-70
2022/10/13 05:55:53;;;;;;;32.40;12.15;;;;;;;12.65;100.00;101831.44;5089455;28;20024;-70
2022/10/13 05:58:19;;;;;;;;;;;;;;;12.80;100.00;101829.56;5083251;28;20098;-70
2022/10/13 06:00:44;;;;;;;29.45;13.07;;;;;;;12.75;100.00;101832.84;5081259;28;20019;-70
2022/10/13 06:03:14;;;;;;;22.63;12.50;;;;;;;12.70;100.00;101828.97;5082630;28;20027;-70
2022/10/13 06:05:42;;;;;;;26.38;13.23;;;;;;;12.77;100.00;101818.94;5088426;28;20032;-70
2022/10/13 06:08:08;;;;;;;21.42;12.63;;;;;;;12.65;100.00;101817.69;5088587;28;20028;-70
2022/10/13 06:10:34;;;;;;;22.73;11.98;;;;;;;12.69;100.00;101816.25;5089982;28;20056;-70
2022/10/13 06:12:59;;;;;;;30.60;13.93;;;;;;;12.70;100.00;101815.22;5089580;28;20067;-70
2022/10/13 06:15:24;;;;;;;24.70;14.13;;;;;;;12.60;100.00;101820.97;5090082;28;20032;-70
2022/10/13 06:17:50;;;;;;;28.00;12.60;;;;;;;12.69;100.00;101827.25;5086263;28;20032;-70
2022/10/13 06:20:15;;;;;;;29.63;12.50;;;;;;;12.64;100.00;101824.22;5090121;28;20028;-70
2022/10/13 06:22:41;;;;;;;26.50;13.60;;;;;;;12.74;100.00;101816.53;5085357;28;20036;-70
2022/10/13 06:25:07;;;;;;;33.07;14.13;;;;;;;12.74;100.00;101820.16;5088724;28;20032;-70
2022/10/13 06:27:32;;;;;;;21.73;12.82;;;;;;;12.83;100.00;101818.16;5089069;28;20020;-70
2022/10/13 06:29:58;;;;;;;28.10;14.03;;;;;;;12.80;100.00;101821.31;5083458;28;20502;-71
2022/10/13 06:32:24;;;;;;;25.33;12.77;;;;;;;12.77;100.00;101825.28;5084765;28;20043;-71
2022/10/13 06:34:49;;;;;;;32.73;13.73;;;;;;;12.73;100.00;101821.19;5080760;28;20031;-70
2022/10/13 06:37:14;;;;;;;26.73;14.10;;;;;;;12.77;100.00;101816.19;5084913;28;20040;-70
2022/10/13 06:39:40;;;;;;;29.03;13.60;;;;;;;12.84;100.00;101819.88;5067641;28;20032;-69
2022/10/13 06:42:06;;;;;;;26.15;14.13;;;;;;;12.84;100.00;101820.75;5090256;28;20031;-70
2022/10/13 06:44:32;;;;;;;30.20;13.17;;;;;;;12.78;100.00;101820.63;5089925;28;20024;-70
2022/10/13 06:46:57;;;;;;;33.50;13.87;;;;;;;12.84;100.00;101825.38;5088457;28;20075;-70
2022/10/13 06:49:23;;;;;;;29.20;13.60;;;;;;;12.88;100.00;101823.97;5085453;28;20024;-70
2022/10/13 06:51:49;;;;;;;22.85;13.55;;;;;;;12.94;100.00;101823.22;5089277;28;20368;-70
2022/10/13 06:54:15;;;;;;;29.17;14.77;;;;;;;12.92;100.00;101820.63;5070160;28;20031;-70
2022/10/13 06:56:40;;;;;;;18.43;12.63;;;;;;;12.90;100.00;101817.22;5087972;28;20035;-71
2022/10/13 06:59:06;;;;;;;29.73;14.93;;;;;;;12.93;100.00;101813.25;5068458;28;20285;-71
2022/10/13 07:01:31;;;;;;;26.30;13.80;;;;;;;12.87;100.00;101814.00;5073277;28;20020;-70
2022/10/13 07:03:57;;;;;;;22.80;13.17;;;;;;;12.87;100.00;101814.00;5086886;28;20028;-70
2022/10/13 07:06:22;;;;;;;22.17;12.77;;;;;;;12.90;100.00;101806.22;5089126;28;20466;-70
2022/10/13 07:08:47;;;;;;;24.83;12.30;;;;;;;12.88;100.00;101819.34;5070154;28;20110;-71
2022/10/13 07:11:14;;;;;;;18.93;12.73;;;;;;;12.90;100.00;101814.47;5088108;28;20097;-71
2022/10/13 07:13:41;;;;;;;22.67;12.70;;;;;;;12.93;100.00;101807.75;5086559;28;20043;-70
2022/10/13 07:16:07;;;;;;;20.88;12.38;;;;;;;12.96;99.80;101813.75;5087132;28;20028;-70
2022/10/13 07:18:32;;;;;;;25.63;12.68;;;;;;;12.94;100.00;101803.97;5065941;28;20026;-70
2022/10/13 07:20:59;;;;;;;22.90;12.90;;;;;;;12.98;99.90;101803.41;5084766;28;20106;-70
2022/10/13 07:23:25;;;;;;;19.58;11.38;;;;;;;13.10;99.49;101801.91;5091259;28;20032;-70
2022/10/13 07:25:50;;;;;;;20.38;13.07;;;;;;;13.07;99.58;101796.78;5090946;28;20113;-70
2022/10/13 07:28:16;;;;;;;19.37;11.43;;;;;;;13.08;99.62;101803.16;5089980;28;20040;-70
2022/10/13 07:30:41;;;;;;;27.67;13.03;;;;;;;13.09;99.08;101804.84;5090429;28;20077;-71
2022/10/13 07:33:07;;;;;;;26.10;13.10;;;;;;;13.08;99.17;101811.41;5087690;28;20043;-70
2022/10/13 07:35:33;;;;;;;23.43;12.37;;;;;;;13.04;99.71;101799.06;5091235;28;20055;-71
2022/10/13 07:37:58;;;;;;;27.10;12.77;;;;;;;13.01;99.23;101802.19;5092134;28;20040;-71
2022/10/13 07:40:23;;;;;;;29.40;11.53;;;;;;;13.08;98.92;101809.47;5091467;28;20032;-70
2022/10/13 07:42:49;;;;;;;22.67;11.10;;;;;;;13.00;99.25;101806.84;5072811;28;20073;-71
2022/10/13 07:45:15;;;;;;;34.57;11.60;;;;;;;12.99;99.64;101812.53;5090488;28;20040;-71
2022/10/13 07:47:40;;;;;;;26.07;10.57;;;;;;;13.04;99.00;101810.94;5089682;28;20040;-70
2022/10/13 07:50:06;;;;;;;23.60;10.67;;;;;;;13.09;99.37;101813.09;5089940;28;20028;-71
2022/10/13 07:52:34;;;;;;;20.93;10.20;;;;;;;13.17;98.79;101815.75;5090960;28;20032;-70
2022/10/13 07:54:59;;;;;;;21.30;10.80;;;;;;;13.28;98.23;101812.53;5091542;28;20463;-71
2022/10/13 07:57:26;;;;;;;26.60;11.27;;;;;;;13.20;98.84;101810.75;5091518;28;20030;-71
2022/10/13 07:59:51;;;;;;;19.55;10.18;;;;;;;13.29;98.65;101809.56;5091191;28;20108;-71
2022/10/13 08:02:16;;;;;;;24.73;11.67;;;;;;;13.30;98.73;101805.75;5090889;28;20106;-71
2022/10/13 08:04:42;;;;;;;22.47;11.30;;;;;;;13.39;98.15;101812.03;5089575;28;20023;-71
2022/10/13 08:07:07;;;;;;;21.50;11.00;;;;;;;13.43;98.71;101805.09;5072154;28;20020;-71
2022/10/13 08:09:33;;;;;;;32.70;11.40;;;;;;;13.53;98.21;101808.41;5091963;28;20024;-70
2022/10/13 08:11:58;;;;;;;22.17;11.90;;;;;;;13.66;97.78;101812.16;5089781;28;20043;-71
2022/10/13 08:14:24;;;;;;;27.60;11.80;;;;;;;13.70;97.52;101812.63;5089903;28;20072;-70
2022/10/13 08:16:49;;;;;;;23.17;12.13;;;;;;;13.74;97.11;101809.31;5088768;28;20297;-71
2022/10/13 08:19:16;;;;;;;26.37;13.17;;;;;;;13.77;96.82;101797.06;5091488;28;20499;-71
2022/10/13 08:21:41;;;;;;;32.70;13.07;;;;;;;13.93;96.01;101796.81;5089150;28;20352;-71
2022/10/13 08:24:11;;;;;;;31.53;12.60;;;;;;;13.85;96.29;101807.94;5073486;28;20024;-71
2022/10/13 08:26:37;;;;;;;29.13;13.40;;;;;;;13.85;96.59;101802.41;5089435;28;20543;-71
2022/10/13 08:29:02;;;;;;;32.17;11.60;;;;;;;13.83;96.68;101805.38;5090833;28;20177;-71
2022/10/13 08:31:27;;;;;;;23.17;12.37;;;;;;;13.91;96.38;101799.75;5091130;28;20487;-71
2022/10/13 08:33:52;;;;;;;25.63;12.63;;;;;;;14.06;95.56;101807.94;5071100;28;20036;-71
2022/10/13 08:36:18;;;;;;;22.40;12.23;;;;;;;14.14;95.44;101805.06;5071356;28;20027;-71
2022/10/13 08:38:44;;;;;;;33.87;12.73;;;;;;;14.32;94.42;101797.22;5090050;28;20032;-71
2022/10/13 08:41:14;;;;;;;25.83;12.27;;;;;;;14.33;94.23;101809.94;5092075;28;20028;-71
2022/10/13 08:43:43;;;;;;;26.42;11.50;;;;;;;14.34;94.14;101793.22;5086544;28;20478;-71
2022/10/13 08:46:09;;;;;;;25.75;11.55;;;;;;;14.37;93.09;101798.34;5091309;28;20050;-71
2022/10/13 08:48:40;;;;;;;19.42;11.40;;;;;;;14.34;92.74;101795.97;5070456;28;20030;-71
2022/10/13 08:51:06;;;;;;;21.73;11.55;;;;;;;14.41;92.48;101790.53;5091880;28;20069;-71
2022/10/13 08:53:39;;;;;;;30.65;12.18;;;;;;;14.42;92.79;101786.72;5088784;28;20064;-71
2022/10/13 08:56:12;;;;;;;22.70;10.55;;;;;;;14.37;92.68;101789.19;5091834;28;20486;-71
2022/10/13 08:58:40;;;;;;;30.17;11.30;;;;;;;14.35;91.79;101796.84;5086299;28;20027;-71
2022/10/13 09:01:12;;;;;;;24.98;11.60;;;;;;;14.30;92.43;101791.06;5072560;28;20052;-71
2022/10/13 09:03:54;;;;;;;26.38;11.43;;;;;;;14.28;93.44;101788.50;5088636;28;20039;-71
2022/10/13 09:06:31;;;;;;;32.85;10.85;;;;;;;14.37;92.64;101781.81;5091293;28;20035;-71
2022/10/13 09:08:59;;;;;;;28.70;11.97;;;;;;;14.40;92.99;101784.13;5088728;28;20116;-71
2022/10/13 09:11:34;;;;;;;23.73;10.38;;;;;;;14.43;92.32;101778.25;5090358;28;20054;-71
2022/10/13 09:14:03;;;;;;;33.15;11.77;;;;;;;14.42;91.38;101772.91;5090037;28;20031;-70
2022/10/13 09:16:33;;;;;;;26.25;11.85;;;;;;;14.38;92.23;101782.63;5088280;28;20031;-71
2022/10/13 09:19:20;;;;;;;22.80;11.35;;;;;;;14.40;92.20;101777.78;5086015;28;20028;-71
2022/10/13 09:21:46;;;;;;;22.55;11.93;;;;;;;14.32;92.62;101769.66;5073085;28;20033;-71
2022/10/13 09:24:17;;;;;;;23.45;12.30;;;;;;;14.53;91.48;101772.38;5090613;28;20081;-70
2022/10/13 09:26:44;;;;;;;28.02;12.50;;;;;;;14.46;91.77;101769.56;5088964;28;20043;-70
2022/10/13 09:29:24;;;;;;;36.08;11.88;;;;;;;14.57;90.80;101773.69;5087629;28;20395;-71
2022/10/13 09:31:49;;;;;;;27.65;11.98;;;;;;;14.63;91.41;101767.38;5088432;28;20445;-71
2022/10/13 09:34:24;;;;;;;24.60;12.40;;;;;;;14.74;90.71;101766.81;5081732;28;20024;-70
2022/10/13 09:37:03;;;;;;;32.28;12.73;;;;;;;14.88;89.88;101766.69;5087843;28;20071;-70
2022/10/13 09:39:30;;;;;;;31.42;12.77;;;;;;;14.92;89.85;101772.63;5089496;28;20115;-70
2022/10/13 09:42:30;;;;;;;28.00;12.48;;;;;;;15.01;89.94;101769.53;5087641;28;20035;-71
2022/10/13 09:44:59;;;;;;;31.35;12.50;;;;;;;15.00;89.65;101766.97;5047130;28;20035;-70
2022/10/13 09:47:27;;;;;;;26.92;12.38;;;;;;;15.03;89.33;101769.31;5077793;28;20035;-70
2022/10/13 09:50:23;;;;;;;23.35;12.18;;;;;;;15.07;88.13;101763.19;5090868;28;20036;-71
2022/10/13 09:52:49;;;;;;;25.85;13.25;;;;;;;14.99;88.24;101768.03;5065529;28;20414;-70
2022/10/13 09:55:32;;;;;;;27.87;13.70;;;;;;;15.08;88.25;101769.53;5090732;28;20423;-71
2022/10/13 09:58:26;;;;;;;31.60;12.93;;;;;;;15.08;87.63;101767.66;5086561;28;20288;-71
2022/10/13 10:00:53;;;;;;;32.05;13.63;;;;;;;14.99;87.13;101765.28;5083151;28;20031;-70
2022/10/13 10:03:26;;;;;;;25.85;13.52;;;;;;;15.01;87.88;101771.44;5087513;28;20039;-71
2022/10/13 10:05:58;;;;;;;24.00;13.27;;;;;;;15.04;87.61;101763.59;5090417;28;20083;-70
2022/10/13 10:08:40;;;;;;;30.45;13.18;;;;;;;15.11;87.20;101763.63;5067194;28;20026;-70
2022/10/13 10:11:12;;;;;;;24.15;12.65;;;;;;;15.19;86.61;101763.44;5090420;28;20505;-70
2022/10/13 10:13:38;;;;;;;27.23;13.20;;;;;;;15.16;86.02;101752.84;5084278;28;20032;-70
2022/10/13 10:16:30;;;;;;;23.50;13.80;;;;;;;15.20;85.32;101757.72;5086658;28;20046;-70
2022/10/13 10:19:16;;;;;;;33.30;13.63;;;;;;;15.13;85.96;101754.09;5074762;28;20020;-71
2022/10/13 10:22:05;;;;;;;28.13;13.45;;;;;;;15.19;86.88;101746.88;5072923;28;20073;-72
2022/10/13 10:24:58;;;;;;;30.95;14.55;;;;;;;15.34;84.99;101753.16;5089497;28;20097;-71
2022/10/13 10:27:44;;;;;;;28.75;13.60;;;;;;;15.32;85.71;101742.28;5086375;28;20728;-71
2022/10/13 10:30:19;;;;;;;29.50;13.18;;;;;;;15.41;84.89;101751.25;5089010;28;20111;-71
2022/10/13 10:33:04;;;;;;;29.15;13.00;;;;;;;15.35;84.85;101749.31;5081238;28;20085;-71
2022/10/13 10:35:55;;;;;;;20.52;12.52;;;;;;;15.25;84.84;101741.41;5089963;28;20044;-71
2022/10/13 10:38:38;;;;;;;26.27;13.15;;;;;;;15.14;84.98;101741.13;5085784;28;20943;-71
2022/10/13 10:41:23;;;;;;;27.92;13.10;;;;;;;15.20;85.24;101743.09;5089929;28;20111;-71
2022/10/13 10:43:52;;;;;;;29.00;12.57;;;;;;;15.35;84.67;101735.53;5089070;28;20028;-72
2022/10/13 10:46:23;;;;;;;30.90;13.25;;;;;;;15.64;85.22;101735.22;5069786;28;20028;-71
2022/10/13 10:48:53;;;;;;;28.70;13.00;;;;;;;15.90;83.13;101729.75;5088695;28;20111;-71
2022/10/13 10:51:24;;;;;;;28.25;12.20;;;;;;;16.06;83.51;101730.16;5087783;28;20033;-71
2022/10/13 10:53:52;;;;;;;29.25;12.88;;;;;;;15.98;83.85;101735.91;5089762;28;20082;-71
2022/10/13 10:56:20;;;;;;;22.40;12.43;;;;;;;15.95;82.50;101739.09;5087472;28;20097;-71
2022/10/13 10:59:04;;;;;;;31.83;13.13;;;;;;;15.81;82.62;101729.09;5086147;28;20031;-72
2022/10/13 11:01:47;;;;;;;27.58;13.13;;;;;;;15.71;83.84;101733.31;5085320;28;20024;-72
2022/10/13 11:04:37;;;;;;;25.70;13.05;;;;;;;15.81;84.80;101737.38;5085883;28;20103;-71
2022/10/13 11:07:03;;;;;;;35.55;12.77;;;;;;;15.81;83.83;101731.00;5086721;28;20024;-71
2022/10/13 11:09:40;;;;;;;33.80;13.52;;;;;;;15.80;83.13;101729.28;5089581;28;20028;-70
2022/10/13 11:12:18;;;;;;;;;;;;;;;15.69;83.19;101725.22;5085654;28;20035;-70
2022/10/13 11:15:01;;;;;;;28.40;13.90;;;;;;;15.60;83.18;101725.63;5088909;28;19916;-71
2022/10/13 11:17:30;;;;;;;34.72;13.35;;;;;;;15.41;83.71;101723.66;5066963;28;20513;-71
2022/10/13 11:19:56;;;;;;;26.83;13.15;;;;;;;15.46;82.97;101726.63;5087552;28;20115;-71
2022/10/13 11:22:29;;;;;;;24.05;12.93;;;;;;;15.50;84.09;101717.75;5084539;28;20421;-71